sensor_id;sensor_type;location;lat;lon;timestamp;P1;durP1;ratioP1;P2;durP2;ratioP2
5452;SDS011;2749;53.576;9.822;2022-08-23T00:00:45;5.23;;;2.50;;
5452;SDS011;2749;53.576;9.822;2022-08-23T00:03:11;4.20;;;2.10;;
5452;SDS011;2749;53.576;9.822;2022-08-23T00:05:37;5.27;;;2.70;;
5452;SDS011;2749;53.576;9.822;2022-08-23T00:08:04;2.47;;;2.03;;
5452;SDS011;2749;53.576;9.822;2022-08-23T00:10:30;6.80;;;2.50;;
5452;SDS011;2749;53.576;9.822;2022-08-23T00:12:56;3.30;;;2.30;;
5452;SDS011;2749;53.576;9.822;2022-08-23T00:15:22;2.70;;;2.47;;
5452;SDS011;2749;53.576;9.822;2022-08-23T00:17:49;7.73;;;2.50;;
5452;SDS011;2749;53.576;9.822;2022-08-23T00:20:15;7.93;;;3.17;;
5452;SDS011;2749;53.576;9.822;2022-08-23T00:22:42;2.30;;;2.10;;
5452;SDS011;2749;53.576;9.822;2022-08-23T00:25:08;3.93;;;3.20;;
5452;SDS011;2749;53.576;9.822;2022-08-23T00:27:35;4.77;;;2.70;;
5452;SDS011;2749;53.576;9.822;2022-08-23T00:30:01;3.80;;;2.80;;
5452;SDS011;2749;53.576;9.822;2022-08-23T00:32:29;7.30;;;3.13;;
5452;SDS011;2749;53.576;9.822;2022-08-23T00:34:56;2.83;;;2.30;;
5452;SDS011;2749;53.576;9.822;2022-08-23T00:37:23;2.60;;;2.30;;
5452;SDS011;2749;53.576;9.822;2022-08-23T00:39:49;4.30;;;3.00;;
5452;SDS011;2749;53.576;9.822;2022-08-23T00:42:24;3.47;;;2.70;;
5452;SDS011;2749;53.576;9.822;2022-08-23T00:45:09;3.00;;;2.77;;
5452;SDS011;2749;53.576;9.822;2022-08-23T00:47:55;3.87;;;2.60;;
5452;SDS011;2749;53.576;9.822;2022-08-23T00:52:53;3.60;;;3.00;;
5452;SDS011;2749;53.576;9.822;2022-08-23T00:55:20;6.07;;;2.60;;
5452;SDS011;2749;53.576;9.822;2022-08-23T00:57:46;3.40;;;2.70;;
5452;SDS011;2749;53.576;9.822;2022-08-23T01:00:13;3.83;;;3.00;;
5452;SDS011;2749;53.576;9.822;2022-08-23T01:02:39;2.53;;;2.33;;
5452;SDS011;2749;53.576;9.822;2022-08-23T01:05:06;3.30;;;2.60;;
5452;SDS011;2749;53.576;9.822;2022-08-23T01:07:38;3.83;;;2.73;;
5452;SDS011;2749;53.576;9.822;2022-08-23T01:10:09;4.80;;;2.90;;
5452;SDS011;2749;53.576;9.822;2022-08-23T01:12:37;10.77;;;3.40;;
5452;SDS011;2749;53.576;9.822;2022-08-23T01:15:15;3.13;;;2.73;;
5452;SDS011;2749;53.576;9.822;2022-08-23T01:17:48;5.40;;;2.63;;
5452;SDS011;2749;53.576;9.822;2022-08-23T01:20:17;6.73;;;3.10;;
5452;SDS011;2749;53.576;9.822;2022-08-23T01:22:47;3.13;;;2.83;;
5452;SDS011;2749;53.576;9.822;2022-08-23T01:25:16;2.90;;;2.63;;
5452;SDS011;2749;53.576;9.822;2022-08-23T01:27:45;3.10;;;2.57;;
5452;SDS011;2749;53.576;9.822;2022-08-23T01:30:11;4.97;;;3.30;;
5452;SDS011;2749;53.576;9.822;2022-08-23T01:32:45;3.27;;;3.03;;
5452;SDS011;2749;53.576;9.822;2022-08-23T01:35:12;4.77;;;3.13;;
5452;SDS011;2749;53.576;9.822;2022-08-23T01:37:39;3.80;;;2.27;;
5452;SDS011;2749;53.576;9.822;2022-08-23T01:40:06;4.57;;;2.80;;
5452;SDS011;2749;53.576;9.822;2022-08-23T01:42:32;3.03;;;2.83;;
5452;SDS011;2749;53.576;9.822;2022-08-23T01:44:58;3.90;;;2.67;;
5452;SDS011;2749;53.576;9.822;2022-08-23T01:47:24;3.40;;;3.10;;
5452;SDS011;2749;53.576;9.822;2022-08-23T01:49:50;9.50;;;3.50;;
5452;SDS011;2749;53.576;9.822;2022-08-23T01:52:16;4.07;;;3.00;;
5452;SDS011;2749;53.576;9.822;2022-08-23T01:54:43;2.90;;;2.70;;
5452;SDS011;2749;53.576;9.822;2022-08-23T01:57:09;3.17;;;2.87;;
5452;SDS011;2749;53.576;9.822;2022-08-23T01:59:35;2.90;;;2.47;;
5452;SDS011;2749;53.576;9.822;2022-08-23T02:02:01;4.73;;;2.90;;
5452;SDS011;2749;53.576;9.822;2022-08-23T02:04:27;5.77;;;3.20;;
5452;SDS011;2749;53.576;9.822;2022-08-23T02:06:54;4.57;;;2.30;;
5452;SDS011;2749;53.576;9.822;2022-08-23T02:09:20;5.53;;;3.13;;
5452;SDS011;2749;53.576;9.822;2022-08-23T02:11:47;3.90;;;2.93;;
5452;SDS011;2749;53.576;9.822;2022-08-23T02:14:15;3.70;;;2.33;;
5452;SDS011;2749;53.576;9.822;2022-08-23T02:16:43;3.83;;;2.83;;
5452;SDS011;2749;53.576;9.822;2022-08-23T02:19:10;4.03;;;3.63;;
5452;SDS011;2749;53.576;9.822;2022-08-23T02:21:37;2.97;;;2.70;;
5452;SDS011;2749;53.576;9.822;2022-08-23T02:24:07;4.30;;;2.90;;
5452;SDS011;2749;53.576;9.822;2022-08-23T02:26:44;7.10;;;3.50;;
5452;SDS011;2749;53.576;9.822;2022-08-23T02:29:10;3.67;;;2.90;;
5452;SDS011;2749;53.576;9.822;2022-08-23T02:31:37;5.53;;;3.07;;
5452;SDS011;2749;53.576;9.822;2022-08-23T02:34:03;8.83;;;3.60;;
5452;SDS011;2749;53.576;9.822;2022-08-23T02:36:30;4.43;;;3.63;;
5452;SDS011;2749;53.576;9.822;2022-08-23T02:38:56;3.53;;;2.80;;
5452;SDS011;2749;53.576;9.822;2022-08-23T02:41:22;6.73;;;4.37;;
5452;SDS011;2749;53.576;9.822;2022-08-23T02:43:52;3.70;;;3.00;;
5452;SDS011;2749;53.576;9.822;2022-08-23T02:46:18;2.97;;;2.70;;
5452;SDS011;2749;53.576;9.822;2022-08-23T02:48:45;5.00;;;3.43;;
5452;SDS011;2749;53.576;9.822;2022-08-23T02:51:11;4.07;;;3.17;;
5452;SDS011;2749;53.576;9.822;2022-08-23T02:53:37;4.60;;;3.00;;
5452;SDS011;2749;53.576;9.822;2022-08-23T02:56:03;3.53;;;2.70;;
5452;SDS011;2749;53.576;9.822;2022-08-23T02:58:29;5.60;;;3.57;;
5452;SDS011;2749;53.576;9.822;2022-08-23T03:00:55;7.77;;;3.37;;
5452;SDS011;2749;53.576;9.822;2022-08-23T03:03:21;7.90;;;3.10;;
5452;SDS011;2749;53.576;9.822;2022-08-23T03:05:48;8.93;;;3.70;;
5452;SDS011;2749;53.576;9.822;2022-08-23T03:08:14;3.20;;;2.90;;
5452;SDS011;2749;53.576;9.822;2022-08-23T03:10:41;3.63;;;3.30;;
5452;SDS011;2749;53.576;9.822;2022-08-23T03:13:07;3.20;;;2.90;;
5452;SDS011;2749;53.576;9.822;2022-08-23T03:15:33;5.13;;;3.30;;
5452;SDS011;2749;53.576;9.822;2022-08-23T03:17:59;9.50;;;3.30;;
5452;SDS011;2749;53.576;9.822;2022-08-23T03:20:25;4.03;;;3.13;;
5452;SDS011;2749;53.576;9.822;2022-08-23T03:22:52;5.63;;;2.90;;
5452;SDS011;2749;53.576;9.822;2022-08-23T03:25:18;3.97;;;3.30;;
5452;SDS011;2749;53.576;9.822;2022-08-23T03:27:44;7.37;;;4.17;;
5452;SDS011;2749;53.576;9.822;2022-08-23T03:30:10;3.40;;;3.10;;
5452;SDS011;2749;53.576;9.822;2022-08-23T03:32:36;4.70;;;3.40;;
5452;SDS011;2749;53.576;9.822;2022-08-23T03:35:02;3.83;;;3.53;;
5452;SDS011;2749;53.576;9.822;2022-08-23T03:37:29;6.30;;;3.30;;
5452;SDS011;2749;53.576;9.822;2022-08-23T03:39:55;7.03;;;3.47;;
5452;SDS011;2749;53.576;9.822;2022-08-23T03:42:22;4.00;;;3.57;;
5452;SDS011;2749;53.576;9.822;2022-08-23T03:44:48;3.20;;;2.93;;
5452;SDS011;2749;53.576;9.822;2022-08-23T03:47:14;4.43;;;3.60;;
5452;SDS011;2749;53.576;9.822;2022-08-23T03:49:40;4.17;;;3.57;;
5452;SDS011;2749;53.576;9.822;2022-08-23T03:52:06;4.80;;;3.50;;
5452;SDS011;2749;53.576;9.822;2022-08-23T03:54:32;4.17;;;3.77;;
5452;SDS011;2749;53.576;9.822;2022-08-23T03:57:00;3.93;;;3.60;;
5452;SDS011;2749;53.576;9.822;2022-08-23T03:59:30;13.30;;;4.07;;
5452;SDS011;2749;53.576;9.822;2022-08-23T04:01:56;5.13;;;3.70;;
5452;SDS011;2749;53.576;9.822;2022-08-23T04:04:22;6.57;;;3.90;;
5452;SDS011;2749;53.576;9.822;2022-08-23T04:06:48;5.40;;;3.77;;
5452;SDS011;2749;53.576;9.822;2022-08-23T04:09:14;3.57;;;3.27;;
5452;SDS011;2749;53.576;9.822;2022-08-23T04:11:41;5.47;;;3.37;;
5452;SDS011;2749;53.576;9.822;2022-08-23T04:14:07;6.10;;;3.33;;
5452;SDS011;2749;53.576;9.822;2022-08-23T04:16:33;5.60;;;4.67;;
5452;SDS011;2749;53.576;9.822;2022-08-23T04:19:06;4.50;;;3.30;;
5452;SDS011;2749;53.576;9.822;2022-08-23T04:21:32;3.93;;;3.30;;
5452;SDS011;2749;53.576;9.822;2022-08-23T04:23:59;7.00;;;2.90;;
5452;SDS011;2749;53.576;9.822;2022-08-23T04:26:24;4.30;;;3.37;;
5452;SDS011;2749;53.576;9.822;2022-08-23T04:28:50;7.43;;;3.70;;
5452;SDS011;2749;53.576;9.822;2022-08-23T04:31:17;7.33;;;3.80;;
5452;SDS011;2749;53.576;9.822;2022-08-23T04:33:43;3.47;;;3.17;;
5452;SDS011;2749;53.576;9.822;2022-08-23T04:36:09;7.60;;;4.80;;
5452;SDS011;2749;53.576;9.822;2022-08-23T04:38:35;4.10;;;3.53;;
5452;SDS011;2749;53.576;9.822;2022-08-23T04:41:01;5.40;;;3.90;;
5452;SDS011;2749;53.576;9.822;2022-08-23T04:43:45;4.90;;;4.23;;
5452;SDS011;2749;53.576;9.822;2022-08-23T04:46:11;4.53;;;4.13;;
5452;SDS011;2749;53.576;9.822;2022-08-23T04:48:41;4.37;;;3.97;;
5452;SDS011;2749;53.576;9.822;2022-08-23T04:51:07;8.53;;;5.40;;
5452;SDS011;2749;53.576;9.822;2022-08-23T04:53:33;5.13;;;4.60;;
5452;SDS011;2749;53.576;9.822;2022-08-23T04:55:59;6.50;;;4.37;;
5452;SDS011;2749;53.576;9.822;2022-08-23T04:58:26;4.93;;;4.40;;
5452;SDS011;2749;53.576;9.822;2022-08-23T05:00:51;9.83;;;4.80;;
5452;SDS011;2749;53.576;9.822;2022-08-23T05:03:17;9.10;;;4.47;;
5452;SDS011;2749;53.576;9.822;2022-08-23T05:05:43;4.73;;;4.10;;
5452;SDS011;2749;53.576;9.822;2022-08-23T05:08:09;4.90;;;4.40;;
5452;SDS011;2749;53.576;9.822;2022-08-23T05:10:36;10.87;;;4.73;;
5452;SDS011;2749;53.576;9.822;2022-08-23T05:13:02;8.83;;;5.40;;
5452;SDS011;2749;53.576;9.822;2022-08-23T05:15:28;6.97;;;4.23;;
5452;SDS011;2749;53.576;9.822;2022-08-23T05:17:54;6.00;;;4.90;;
5452;SDS011;2749;53.576;9.822;2022-08-23T05:20:20;5.90;;;3.87;;
5452;SDS011;2749;53.576;9.822;2022-08-23T05:22:46;5.43;;;4.73;;
5452;SDS011;2749;53.576;9.822;2022-08-23T05:25:12;11.43;;;4.97;;
5452;SDS011;2749;53.576;9.822;2022-08-23T05:27:38;4.57;;;4.13;;
5452;SDS011;2749;53.576;9.822;2022-08-23T05:30:05;4.37;;;4.00;;
5452;SDS011;2749;53.576;9.822;2022-08-23T05:32:31;9.57;;;4.27;;
5452;SDS011;2749;53.576;9.822;2022-08-23T05:34:57;5.07;;;4.33;;
5452;SDS011;2749;53.576;9.822;2022-08-23T05:37:23;8.20;;;4.57;;
5452;SDS011;2749;53.576;9.822;2022-08-23T05:39:49;4.70;;;4.23;;
5452;SDS011;2749;53.576;9.822;2022-08-23T05:42:15;6.73;;;4.30;;
5452;SDS011;2749;53.576;9.822;2022-08-23T05:44:42;7.00;;;4.40;;
5452;SDS011;2749;53.576;9.822;2022-08-23T05:47:10;6.83;;;4.73;;
5452;SDS011;2749;53.576;9.822;2022-08-23T05:49:36;5.40;;;4.30;;
5452;SDS011;2749;53.576;9.822;2022-08-23T05:52:07;6.73;;;4.13;;
5452;SDS011;2749;53.576;9.822;2022-08-23T05:54:33;4.80;;;4.30;;
5452;SDS011;2749;53.576;9.822;2022-08-23T05:56:59;5.30;;;3.70;;
5452;SDS011;2749;53.576;9.822;2022-08-23T05:59:26;4.27;;;3.97;;
5452;SDS011;2749;53.576;9.822;2022-08-23T06:01:52;4.90;;;4.47;;
5452;SDS011;2749;53.576;9.822;2022-08-23T06:04:18;7.30;;;4.90;;
5452;SDS011;2749;53.576;9.822;2022-08-23T06:06:44;7.13;;;4.43;;
5452;SDS011;2749;53.576;9.822;2022-08-23T06:09:12;16.60;;;4.80;;
5452;SDS011;2749;53.576;9.822;2022-08-23T06:11:38;4.93;;;4.50;;
5452;SDS011;2749;53.576;9.822;2022-08-23T06:14:05;4.03;;;3.73;;
5452;SDS011;2749;53.576;9.822;2022-08-23T06:16:34;8.33;;;5.30;;
5452;SDS011;2749;53.576;9.822;2022-08-23T06:19:01;8.20;;;5.17;;
5452;SDS011;2749;53.576;9.822;2022-08-23T06:21:27;7.00;;;5.13;;
5452;SDS011;2749;53.576;9.822;2022-08-23T06:23:54;5.60;;;4.80;;
5452;SDS011;2749;53.576;9.822;2022-08-23T06:26:22;7.93;;;4.90;;
5452;SDS011;2749;53.576;9.822;2022-08-23T06:28:49;6.73;;;5.20;;
5452;SDS011;2749;53.576;9.822;2022-08-23T06:31:15;7.00;;;4.90;;
5452;SDS011;2749;53.576;9.822;2022-08-23T06:34:01;7.60;;;5.37;;
5452;SDS011;2749;53.576;9.822;2022-08-23T06:36:28;5.23;;;4.13;;
5452;SDS011;2749;53.576;9.822;2022-08-23T06:38:54;9.13;;;4.80;;
5452;SDS011;2749;53.576;9.822;2022-08-23T06:41:20;6.47;;;4.43;;
5452;SDS011;2749;53.576;9.822;2022-08-23T06:43:46;4.73;;;4.27;;
5452;SDS011;2749;53.576;9.822;2022-08-23T06:46:16;7.93;;;4.50;;
5452;SDS011;2749;53.576;9.822;2022-08-23T06:48:43;7.00;;;4.80;;
5452;SDS011;2749;53.576;9.822;2022-08-23T06:51:13;5.53;;;5.03;;
5452;SDS011;2749;53.576;9.822;2022-08-23T06:53:39;6.40;;;5.70;;
5452;SDS011;2749;53.576;9.822;2022-08-23T06:56:05;4.90;;;4.40;;
5452;SDS011;2749;53.576;9.822;2022-08-23T06:58:31;5.90;;;5.27;;
5452;SDS011;2749;53.576;9.822;2022-08-23T07:03:42;5.80;;;4.73;;
5452;SDS011;2749;53.576;9.822;2022-08-23T07:06:08;8.10;;;4.40;;
5452;SDS011;2749;53.576;9.822;2022-08-23T07:08:34;15.40;;;3.70;;
5452;SDS011;2749;53.576;9.822;2022-08-23T07:11:00;5.60;;;4.23;;
5452;SDS011;2749;53.576;9.822;2022-08-23T07:13:26;5.33;;;4.60;;
5452;SDS011;2749;53.576;9.822;2022-08-23T07:15:58;4.30;;;3.70;;
5452;SDS011;2749;53.576;9.822;2022-08-23T07:18:24;5.07;;;4.53;;
5452;SDS011;2749;53.576;9.822;2022-08-23T07:20:57;4.23;;;3.83;;
5452;SDS011;2749;53.576;9.822;2022-08-23T07:23:24;7.20;;;4.43;;
5452;SDS011;2749;53.576;9.822;2022-08-23T07:25:50;6.83;;;3.80;;
5452;SDS011;2749;53.576;9.822;2022-08-23T07:28:15;6.70;;;4.20;;
5452;SDS011;2749;53.576;9.822;2022-08-23T07:30:41;6.23;;;4.37;;
5452;SDS011;2749;53.576;9.822;2022-08-23T07:33:07;4.60;;;4.20;;
5452;SDS011;2749;53.576;9.822;2022-08-23T07:35:33;5.63;;;4.10;;
5452;SDS011;2749;53.576;9.822;2022-08-23T07:37:59;6.53;;;3.93;;
5452;SDS011;2749;53.576;9.822;2022-08-23T07:40:25;5.40;;;4.03;;
5452;SDS011;2749;53.576;9.822;2022-08-23T07:42:51;4.37;;;3.30;;
5452;SDS011;2749;53.576;9.822;2022-08-23T07:45:17;4.40;;;4.00;;
5452;SDS011;2749;53.576;9.822;2022-08-23T07:47:43;3.20;;;2.90;;
5452;SDS011;2749;53.576;9.822;2022-08-23T07:50:09;4.00;;;3.70;;
5452;SDS011;2749;53.576;9.822;2022-08-23T07:52:35;4.03;;;3.60;;
5452;SDS011;2749;53.576;9.822;2022-08-23T07:55:01;5.00;;;3.40;;
5452;SDS011;2749;53.576;9.822;2022-08-23T07:57:27;6.43;;;4.60;;
5452;SDS011;2749;53.576;9.822;2022-08-23T07:59:53;8.60;;;2.90;;
5452;SDS011;2749;53.576;9.822;2022-08-23T08:02:19;6.50;;;3.83;;
5452;SDS011;2749;53.576;9.822;2022-08-23T08:04:46;7.57;;;4.43;;
5452;SDS011;2749;53.576;9.822;2022-08-23T08:07:12;8.57;;;3.60;;
5452;SDS011;2749;53.576;9.822;2022-08-23T08:09:38;7.17;;;4.10;;
5452;SDS011;2749;53.576;9.822;2022-08-23T08:12:04;5.80;;;3.60;;
5452;SDS011;2749;53.576;9.822;2022-08-23T08:14:30;4.93;;;3.10;;
5452;SDS011;2749;53.576;9.822;2022-08-23T08:16:56;7.90;;;3.40;;
5452;SDS011;2749;53.576;9.822;2022-08-23T08:19:24;4.53;;;3.60;;
5452;SDS011;2749;53.576;9.822;2022-08-23T08:21:50;3.27;;;2.97;;
5452;SDS011;2749;53.576;9.822;2022-08-23T08:24:16;5.10;;;4.30;;
5452;SDS011;2749;53.576;9.822;2022-08-23T08:26:43;3.30;;;3.07;;
5452;SDS011;2749;53.576;9.822;2022-08-23T08:29:09;6.43;;;4.10;;
5452;SDS011;2749;53.576;9.822;2022-08-23T08:31:36;8.43;;;4.13;;
5452;SDS011;2749;53.576;9.822;2022-08-23T08:34:03;3.17;;;2.87;;
5452;SDS011;2749;53.576;9.822;2022-08-23T08:36:30;6.67;;;4.17;;
5452;SDS011;2749;53.576;9.822;2022-08-23T08:38:59;5.07;;;3.10;;
5452;SDS011;2749;53.576;9.822;2022-08-23T08:41:31;7.13;;;3.20;;
5452;SDS011;2749;53.576;9.822;2022-08-23T08:44:17;5.23;;;2.80;;
5452;SDS011;2749;53.576;9.822;2022-08-23T08:46:47;4.57;;;3.40;;
5452;SDS011;2749;53.576;9.822;2022-08-23T08:52:01;3.37;;;3.07;;
5452;SDS011;2749;53.576;9.822;2022-08-23T08:54:29;4.27;;;2.70;;
5452;SDS011;2749;53.576;9.822;2022-08-23T08:56:57;5.90;;;2.83;;
5452;SDS011;2749;53.576;9.822;2022-08-23T08:59:42;5.13;;;2.37;;
5452;SDS011;2749;53.576;9.822;2022-08-23T09:02:20;4.70;;;3.10;;
5452;SDS011;2749;53.576;9.822;2022-08-23T09:04:47;3.73;;;3.43;;
5452;SDS011;2749;53.576;9.822;2022-08-23T09:10:04;10.60;;;3.47;;
5452;SDS011;2749;53.576;9.822;2022-08-23T09:12:51;3.13;;;2.87;;
5452;SDS011;2749;53.576;9.822;2022-08-23T09:20:33;3.20;;;2.83;;
5452;SDS011;2749;53.576;9.822;2022-08-23T09:25:31;4.80;;;2.80;;
5452;SDS011;2749;53.576;9.822;2022-08-23T09:27:57;4.50;;;2.70;;
5452;SDS011;2749;53.576;9.822;2022-08-23T09:30:33;4.30;;;2.60;;
5452;SDS011;2749;53.576;9.822;2022-08-23T09:33:15;6.00;;;2.80;;
5452;SDS011;2749;53.576;9.822;2022-08-23T09:35:41;4.87;;;2.60;;
5452;SDS011;2749;53.576;9.822;2022-08-23T09:38:16;3.00;;;2.50;;
5452;SDS011;2749;53.576;9.822;2022-08-23T09:40:45;3.53;;;3.07;;
5452;SDS011;2749;53.576;9.822;2022-08-23T09:43:16;2.50;;;2.30;;
5452;SDS011;2749;53.576;9.822;2022-08-23T09:48:16;8.63;;;2.87;;
5452;SDS011;2749;53.576;9.822;2022-08-23T09:51:01;8.93;;;3.03;;
5452;SDS011;2749;53.576;9.822;2022-08-23T09:53:27;5.10;;;3.20;;
5452;SDS011;2749;53.576;9.822;2022-08-23T09:55:54;3.73;;;3.10;;
5452;SDS011;2749;53.576;9.822;2022-08-23T09:58:55;5.70;;;2.40;;
5452;SDS011;2749;53.576;9.822;2022-08-23T10:03:43;3.10;;;2.63;;
5452;SDS011;2749;53.576;9.822;2022-08-23T10:06:10;2.80;;;2.60;;
5452;SDS011;2749;53.576;9.822;2022-08-23T10:08:49;3.10;;;2.63;;
5452;SDS011;2749;53.576;9.822;2022-08-23T10:11:17;2.73;;;2.50;;
5452;SDS011;2749;53.576;9.822;2022-08-23T10:13:43;2.23;;;2.03;;
5452;SDS011;2749;53.576;9.822;2022-08-23T10:18:41;2.60;;;2.00;;
5452;SDS011;2749;53.576;9.822;2022-08-23T10:21:22;4.33;;;2.70;;
5452;SDS011;2749;53.576;9.822;2022-08-23T10:26:32;5.40;;;2.30;;
5452;SDS011;2749;53.576;9.822;2022-08-23T10:29:04;3.37;;;2.10;;
5452;SDS011;2749;53.576;9.822;2022-08-23T10:32:02;3.73;;;2.20;;
5452;SDS011;2749;53.576;9.822;2022-08-23T10:39:29;2.70;;;2.47;;
5452;SDS011;2749;53.576;9.822;2022-08-23T10:49:33;3.50;;;2.60;;
5452;SDS011;2749;53.576;9.822;2022-08-23T10:52:00;3.60;;;2.27;;
5452;SDS011;2749;53.576;9.822;2022-08-23T10:54:33;3.90;;;1.80;;
5452;SDS011;2749;53.576;9.822;2022-08-23T10:57:09;4.70;;;2.20;;
5452;SDS011;2749;53.576;9.822;2022-08-23T10:59:37;3.60;;;1.70;;
5452;SDS011;2749;53.576;9.822;2022-08-23T11:07:40;2.50;;;2.30;;
5452;SDS011;2749;53.576;9.822;2022-08-23T11:10:08;2.80;;;2.17;;
5452;SDS011;2749;53.576;9.822;2022-08-23T11:12:51;2.60;;;2.27;;
5452;SDS011;2749;53.576;9.822;2022-08-23T11:18:03;3.10;;;2.00;;
5452;SDS011;2749;53.576;9.822;2022-08-23T11:23:34;3.60;;;1.70;;
5452;SDS011;2749;53.576;9.822;2022-08-23T11:26:01;3.40;;;1.50;;
5452;SDS011;2749;53.576;9.822;2022-08-23T11:33:33;2.00;;;1.83;;
5452;SDS011;2749;53.576;9.822;2022-08-23T11:46:24;2.37;;;1.70;;
5452;SDS011;2749;53.576;9.822;2022-08-23T12:01:44;2.50;;;1.80;;
5452;SDS011;2749;53.576;9.822;2022-08-23T12:04:11;5.20;;;1.57;;
5452;SDS011;2749;53.576;9.822;2022-08-23T12:06:52;2.23;;;1.60;;
5452;SDS011;2749;53.576;9.822;2022-08-23T12:19:53;2.47;;;1.70;;
5452;SDS011;2749;53.576;9.822;2022-08-23T12:22:23;3.20;;;1.90;;
5452;SDS011;2749;53.576;9.822;2022-08-23T12:24:56;3.00;;;1.60;;
5452;SDS011;2749;53.576;9.822;2022-08-23T12:27:32;1.70;;;1.50;;
5452;SDS011;2749;53.576;9.822;2022-08-23T12:38:00;3.63;;;1.47;;
5452;SDS011;2749;53.576;9.822;2022-08-23T12:40:31;1.70;;;1.60;;
5452;SDS011;2749;53.576;9.822;2022-08-23T12:43:06;2.77;;;2.57;;
5452;SDS011;2749;53.576;9.822;2022-08-23T12:48:18;2.00;;;1.80;;
5452;SDS011;2749;53.576;9.822;2022-08-23T12:50:50;2.50;;;2.30;;
5452;SDS011;2749;53.576;9.822;2022-08-23T12:53:25;1.97;;;1.30;;
5452;SDS011;2749;53.576;9.822;2022-08-23T12:55:51;2.00;;;1.57;;
5452;SDS011;2749;53.576;9.822;2022-08-23T12:58:27;2.00;;;1.47;;
5452;SDS011;2749;53.576;9.822;2022-08-23T13:00:56;1.90;;;1.50;;
5452;SDS011;2749;53.576;9.822;2022-08-23T13:03:23;2.00;;;1.80;;
5452;SDS011;2749;53.576;9.822;2022-08-23T13:05:54;2.10;;;1.93;;
5452;SDS011;2749;53.576;9.822;2022-08-23T13:08:21;2.10;;;1.30;;
5452;SDS011;2749;53.576;9.822;2022-08-23T13:10:48;2.70;;;1.40;;
5452;SDS011;2749;53.576;9.822;2022-08-23T13:13:17;2.80;;;1.60;;
5452;SDS011;2749;53.576;9.822;2022-08-23T13:18:09;6.20;;;2.20;;
5452;SDS011;2749;53.576;9.822;2022-08-23T13:20:36;4.00;;;1.97;;
5452;SDS011;2749;53.576;9.822;2022-08-23T13:23:03;1.90;;;1.77;;
5452;SDS011;2749;53.576;9.822;2022-08-23T13:25:33;2.37;;;1.30;;
5452;SDS011;2749;53.576;9.822;2022-08-23T13:30:44;2.77;;;1.40;;
5452;SDS011;2749;53.576;9.822;2022-08-23T13:33:23;2.80;;;1.50;;
5452;SDS011;2749;53.576;9.822;2022-08-23T13:35:49;5.03;;;1.30;;
5452;SDS011;2749;53.576;9.822;2022-08-23T13:38:49;2.23;;;1.20;;
5452;SDS011;2749;53.576;9.822;2022-08-23T13:41:09;3.43;;;1.33;;
5452;SDS011;2749;53.576;9.822;2022-08-23T13:48:53;2.97;;;1.83;;
5452;SDS011;2749;53.576;9.822;2022-08-23T13:51:26;4.37;;;1.80;;
5452;SDS011;2749;53.576;9.822;2022-08-23T13:53:53;1.40;;;1.30;;
5452;SDS011;2749;53.576;9.822;2022-08-23T13:56:20;3.20;;;2.33;;
5452;SDS011;2749;53.576;9.822;2022-08-23T13:58:53;2.70;;;1.70;;
5452;SDS011;2749;53.576;9.822;2022-08-23T14:01:19;3.93;;;1.60;;
5452;SDS011;2749;53.576;9.822;2022-08-23T14:03:45;3.20;;;1.73;;
5452;SDS011;2749;53.576;9.822;2022-08-23T14:06:11;3.20;;;1.70;;
5452;SDS011;2749;53.576;9.822;2022-08-23T14:08:37;1.97;;;1.73;;
5452;SDS011;2749;53.576;9.822;2022-08-23T14:11:03;5.43;;;1.50;;
5452;SDS011;2749;53.576;9.822;2022-08-23T14:13:29;5.93;;;1.67;;
5452;SDS011;2749;53.576;9.822;2022-08-23T14:15:59;6.10;;;2.27;;
5452;SDS011;2749;53.576;9.822;2022-08-23T14:18:26;1.80;;;1.43;;
5452;SDS011;2749;53.576;9.822;2022-08-23T14:20:52;1.47;;;1.27;;
5452;SDS011;2749;53.576;9.822;2022-08-23T14:23:18;3.93;;;1.90;;
5452;SDS011;2749;53.576;9.822;2022-08-23T14:25:44;4.13;;;2.00;;
5452;SDS011;2749;53.576;9.822;2022-08-23T14:28:10;3.10;;;1.63;;
5452;SDS011;2749;53.576;9.822;2022-08-23T14:30:37;2.17;;;1.73;;
5452;SDS011;2749;53.576;9.822;2022-08-23T14:33:03;5.27;;;1.77;;
5452;SDS011;2749;53.576;9.822;2022-08-23T14:35:29;1.63;;;1.53;;
5452;SDS011;2749;53.576;9.822;2022-08-23T14:37:55;2.90;;;1.87;;
5452;SDS011;2749;53.576;9.822;2022-08-23T14:40:21;2.93;;;1.37;;
5452;SDS011;2749;53.576;9.822;2022-08-23T14:42:47;4.03;;;1.90;;
5452;SDS011;2749;53.576;9.822;2022-08-23T14:45:14;2.40;;;2.20;;
5452;SDS011;2749;53.576;9.822;2022-08-23T14:47:40;2.63;;;1.97;;
5452;SDS011;2749;53.576;9.822;2022-08-23T14:50:07;2.80;;;1.57;;
5452;SDS011;2749;53.576;9.822;2022-08-23T14:52:35;1.60;;;1.50;;
5452;SDS011;2749;53.576;9.822;2022-08-23T14:55:01;2.13;;;1.40;;
5452;SDS011;2749;53.576;9.822;2022-08-23T14:57:27;3.30;;;1.70;;
5452;SDS011;2749;53.576;9.822;2022-08-23T14:59:53;2.20;;;1.90;;
5452;SDS011;2749;53.576;9.822;2022-08-23T15:02:21;2.20;;;1.60;;
5452;SDS011;2749;53.576;9.822;2022-08-23T15:04:47;2.03;;;1.70;;
5452;SDS011;2749;53.576;9.822;2022-08-23T15:07:13;2.40;;;1.80;;
5452;SDS011;2749;53.576;9.822;2022-08-23T15:09:39;3.77;;;1.67;;
5452;SDS011;2749;53.576;9.822;2022-08-23T15:12:06;2.17;;;1.83;;
5452;SDS011;2749;53.576;9.822;2022-08-23T15:14:32;3.63;;;1.57;;
5452;SDS011;2749;53.576;9.822;2022-08-23T15:16:58;7.37;;;1.90;;
5452;SDS011;2749;53.576;9.822;2022-08-23T15:19:24;2.47;;;1.90;;
5452;SDS011;2749;53.576;9.822;2022-08-23T15:21:50;2.33;;;2.13;;
5452;SDS011;2749;53.576;9.822;2022-08-23T15:24:16;2.23;;;2.03;;
5452;SDS011;2749;53.576;9.822;2022-08-23T15:26:42;3.50;;;1.90;;
5452;SDS011;2749;53.576;9.822;2022-08-23T15:29:08;2.60;;;2.40;;
5452;SDS011;2749;53.576;9.822;2022-08-23T15:31:34;2.57;;;1.93;;
5452;SDS011;2749;53.576;9.822;2022-08-23T15:34:00;3.80;;;1.57;;
5452;SDS011;2749;53.576;9.822;2022-08-23T15:36:26;1.93;;;1.83;;
5452;SDS011;2749;53.576;9.822;2022-08-23T15:38:52;3.50;;;1.67;;
5452;SDS011;2749;53.576;9.822;2022-08-23T15:41:19;2.80;;;1.90;;
5452;SDS011;2749;53.576;9.822;2022-08-23T15:43:45;1.90;;;1.73;;
5452;SDS011;2749;53.576;9.822;2022-08-23T15:46:15;4.27;;;1.97;;
5452;SDS011;2749;53.576;9.822;2022-08-23T15:48:42;3.33;;;1.87;;
5452;SDS011;2749;53.576;9.822;2022-08-23T15:51:09;4.90;;;2.03;;
5452;SDS011;2749;53.576;9.822;2022-08-23T15:53:36;6.10;;;2.00;;
5452;SDS011;2749;53.576;9.822;2022-08-23T15:56:06;2.13;;;1.43;;
5452;SDS011;2749;53.576;9.822;2022-08-23T15:58:32;3.43;;;2.00;;
5452;SDS011;2749;53.576;9.822;2022-08-23T16:00:58;2.73;;;2.10;;
5452;SDS011;2749;53.576;9.822;2022-08-23T16:03:24;1.73;;;1.63;;
5452;SDS011;2749;53.576;9.822;2022-08-23T16:05:51;5.33;;;2.30;;
5452;SDS011;2749;53.576;9.822;2022-08-23T16:08:27;1.70;;;1.60;;
5452;SDS011;2749;53.576;9.822;2022-08-23T16:10:54;2.60;;;1.80;;
5452;SDS011;2749;53.576;9.822;2022-08-23T16:13:21;4.20;;;1.70;;
5452;SDS011;2749;53.576;9.822;2022-08-23T16:15:47;2.73;;;2.10;;
5452;SDS011;2749;53.576;9.822;2022-08-23T16:18:13;1.67;;;1.57;;
5452;SDS011;2749;53.576;9.822;2022-08-23T16:20:39;2.00;;;1.87;;
5452;SDS011;2749;53.576;9.822;2022-08-23T16:23:05;2.77;;;1.90;;
5452;SDS011;2749;53.576;9.822;2022-08-23T16:25:31;2.30;;;1.60;;
5452;SDS011;2749;53.576;9.822;2022-08-23T16:27:58;2.13;;;1.90;;
5452;SDS011;2749;53.576;9.822;2022-08-23T16:30:24;3.90;;;1.73;;
5452;SDS011;2749;53.576;9.822;2022-08-23T16:32:50;2.10;;;1.63;;
5452;SDS011;2749;53.576;9.822;2022-08-23T16:35:16;2.13;;;1.60;;
5452;SDS011;2749;53.576;9.822;2022-08-23T16:37:42;4.47;;;2.07;;
5452;SDS011;2749;53.576;9.822;2022-08-23T16:40:08;2.80;;;1.80;;
5452;SDS011;2749;53.576;9.822;2022-08-23T16:42:34;1.90;;;1.70;;
5452;SDS011;2749;53.576;9.822;2022-08-23T16:45:00;1.90;;;1.67;;
5452;SDS011;2749;53.576;9.822;2022-08-23T16:47:26;2.03;;;1.70;;
5452;SDS011;2749;53.576;9.822;2022-08-23T16:49:53;2.43;;;2.00;;
5452;SDS011;2749;53.576;9.822;2022-08-23T16:52:19;2.13;;;1.57;;
5452;SDS011;2749;53.576;9.822;2022-08-23T16:54:45;3.50;;;2.17;;
5452;SDS011;2749;53.576;9.822;2022-08-23T16:57:11;3.20;;;2.20;;
5452;SDS011;2749;53.576;9.822;2022-08-23T16:59:41;2.03;;;1.83;;
5452;SDS011;2749;53.576;9.822;2022-08-23T17:02:07;2.10;;;1.70;;
5452;SDS011;2749;53.576;9.822;2022-08-23T17:04:34;1.80;;;1.70;;
5452;SDS011;2749;53.576;9.822;2022-08-23T17:07:01;1.73;;;1.50;;
5452;SDS011;2749;53.576;9.822;2022-08-23T17:09:27;2.97;;;1.57;;
5452;SDS011;2749;53.576;9.822;2022-08-23T17:11:53;3.80;;;2.00;;